Time;durP1;ratioP1;P1;durP2;ratioP2;P2;SDS_P1;SDS_P2;PMS_P1;PMS_P2;Temp;Humidity;BMP_temperature;BMP_pressure;BME280_temperature;BME280_humidity;BME280_pressure;Samples;Min_cycle;Max_cycle;Signal;HPM_P1;HPM_P2
2024/03/04 00:02:09;;;;;;;26.00;24.70;;;;;;;0.70;100.00;100915.72;5024918;28;20068;-73
2024/03/04 00:04:38;;;;;;;27.35;25.80;;;;;;;0.87;100.00;100909.78;5023402;28;20042;-72
2024/03/04 00:07:08;;;;;;;35.50;33.70;;;;;;;0.93;100.00;100913.63;5025362;28;20050;-72
2024/03/04 00:09:37;;;;;;;28.42;26.85;;;;;;;0.45;100.00;100909.19;5035883;28;20137;-72
2024/03/04 00:12:05;;;;;;;27.95;26.52;;;;;;;0.58;100.00;100911.56;5016059;28;20053;-72
2024/03/04 00:14:32;;;;;;;29.85;28.27;;;;;;;0.23;100.00;100910.25;5027248;28;20068;-72
2024/03/04 00:17:00;;;;;;;31.08;29.30;;;;;;;0.19;100.00;100909.72;5028362;28;20050;-72
2024/03/04 00:19:26;;;;;;;27.17;25.55;;;;;;;0.36;100.00;100912.63;5028197;28;20104;-72
2024/03/04 00:21:56;;;;;;;26.50;25.00;;;;;;;0.26;100.00;100909.16;5028531;28;20052;-72
2024/03/04 00:24:22;;;;;;;27.83;26.15;;;;;;;-0.02;100.00;100915.00;5027789;28;20500;-72
2024/03/04 00:26:51;;;;;;;26.75;25.27;;;;;;;0.06;100.00;100914.34;5023490;28;20041;-70
2024/03/04 00:29:18;;;;;;;26.40;25.00;;;;;;;0.28;100.00;100910.69;5028188;28;20092;-71
2024/03/04 00:31:45;;;;;;;29.90;28.20;;;;;;;0.15;100.00;100910.09;5027401;28;20053;-71
2024/03/04 00:34:12;;;;;;;30.42;28.27;;;;;;;0.26;100.00;100910.00;5027847;28;20721;-72
2024/03/04 00:36:39;;;;;;;28.30;26.50;;;;;;;0.39;100.00;100913.19;5026930;28;20132;-72
2024/03/04 00:39:09;;;;;;;28.10;25.48;;;;;;;0.51;100.00;100913.88;5024170;28;21191;-71
2024/03/04 00:41:38;;;;;;;31.05;28.75;;;;;;;0.34;100.00;100914.56;5030584;28;20481;-70
2024/03/04 00:44:06;;;;;;;30.17;28.25;;;;;;;0.20;100.00;100913.97;5024274;28;20058;-72
2024/03/04 00:46:33;;;;;;;30.25;28.55;;;;;;;0.20;100.00;100910.53;5034650;28;20053;-72
2024/03/04 00:49:00;;;;;;;30.88;29.10;;;;;;;0.14;100.00;100911.06;5027879;28;20464;-72
2024/03/04 00:51:28;;;;;;;27.52;26.02;;;;;;;0.26;100.00;100914.41;5027725;28;20049;-72
2024/03/04 00:53:55;;;;;;;26.38;24.88;;;;;;;0.03;100.00;100912.00;5031019;28;20075;-70
2024/03/04 00:56:22;;;;;;;26.27;24.88;;;;;;;0.13;100.00;100904.19;5030931;28;20085;-71
2024/03/04 00:58:49;;;;;;;27.73;26.30;;;;;;;0.08;100.00;100903.75;5031927;28;20056;-72
2024/03/04 01:01:17;;;;;;;31.85;29.55;;;;;;;-0.01;100.00;100906.19;5031850;28;20095;-72
2024/03/04 01:03:54;;;;;;;29.73;27.77;;;;;;;-0.23;100.00;100906.41;5027164;28;20049;-72
2024/03/04 01:06:21;;;;;;;26.35;24.60;;;;;;;-0.18;100.00;100904.25;5041802;28;20084;-72
2024/03/04 01:08:48;;;;;;;26.25;24.85;;;;;;;-0.28;100.00;100903.34;5031329;28;20075;-72
2024/03/04 01:11:15;;;;;;;28.50;27.00;;;;;;;0.10;100.00;100896.63;5039653;28;20606;-73
2024/03/04 01:13:42;;;;;;;28.73;27.20;;;;;;;0.21;100.00;100894.72;5029391;28;20073;-73
2024/03/04 01:16:09;;;;;;;26.08;24.48;;;;;;;-0.08;100.00;100896.44;5032331;28;20045;-73
2024/03/04 01:18:37;;;;;;;26.60;25.10;;;;;;;-0.41;100.00;100897.53;5024374;28;20050;-73
2024/03/04 01:21:06;;;;;;;25.27;23.88;;;;;;;-0.58;100.00;100896.34;5030572;28;20051;-72
2024/03/04 01:23:33;;;;;;;28.73;27.23;;;;;;;-0.34;100.00;100904.69;5031963;28;20053;-73
2024/03/04 01:26:00;;;;;;;30.85;28.98;;;;;;;-0.29;100.00;100909.53;5020393;28;20057;-70
2024/03/04 01:28:28;;;;;;;23.30;21.98;;;;;;;-0.40;100.00;100909.63;5030676;28;20065;-70
2024/03/04 01:30:55;;;;;;;25.77;24.38;;;;;;;-0.31;100.00;100912.25;5024425;28;20081;-71
2024/03/04 01:33:22;;;;;;;31.42;29.17;;;;;;;-0.28;100.00;100904.16;5031516;28;20049;-70
2024/03/04 01:35:51;;;;;;;31.25;29.45;;;;;;;-0.34;100.00;100909.91;5029436;28;20050;-71
2024/03/04 01:38:17;;;;;;;26.02;24.30;;;;;;;-0.49;100.00;100903.38;5032368;28;20049;-70
2024/03/04 01:40:44;;;;;;;27.73;26.00;;;;;;;-0.36;100.00;100900.59;5024284;28;20050;-72
2024/03/04 01:43:11;;;;;;;36.47;34.28;;;;;;;-0.54;100.00;100905.56;5030725;28;20041;-71
2024/03/04 01:45:38;;;;;;;34.10;31.83;;;;;;;-0.40;100.00;100907.81;5026366;28;20133;-71
2024/03/04 01:48:06;;;;;;;29.10;27.50;;;;;;;-0.41;100.00;100906.19;5031047;28;20064;-71
2024/03/04 01:50:36;;;;;;;31.73;29.83;;;;;;;-0.70;100.00;100903.41;5023408;28;20046;-73
2024/03/04 01:53:09;;;;;;;29.88;27.98;;;;;;;-0.45;100.00;100904.81;5034616;28;20041;-72
2024/03/04 01:55:42;;;;;;;29.27;27.58;;;;;;;-0.74;100.00;100899.41;5012872;28;20049;-72
2024/03/04 01:58:11;;;;;;;33.03;31.13;;;;;;;-0.67;100.00;100899.72;5030367;28;20068;-72
2024/03/04 02:00:41;;;;;;;30.33;27.95;;;;;;;-0.77;100.00;100905.69;5031769;28;20107;-72
2024/03/04 02:03:11;;;;;;;32.03;29.92;;;;;;;-0.68;100.00;100917.16;5026274;28;20052;-73
2024/03/04 02:05:39;;;;;;;34.17;31.25;;;;;;;-0.67;100.00;100907.53;5025069;28;20049;-73
2024/03/04 02:08:09;;;;;;;35.95;33.67;;;;;;;-0.65;100.00;100911.69;5030193;28;20041;-73
2024/03/04 02:10:36;;;;;;;32.60;30.63;;;;;;;-0.48;100.00;100905.88;5030544;28;20052;-72
2024/03/04 02:13:04;;;;;;;30.30;28.40;;;;;;;-0.59;100.00;100905.13;5028595;28;20053;-73
2024/03/04 02:15:34;;;;;;;30.90;29.10;;;;;;;-0.42;100.00;100903.69;5029151;28;20045;-73
2024/03/04 02:18:01;;;;;;;33.03;31.13;;;;;;;-0.64;100.00;100905.50;5029244;28;20565;-73
2024/03/04 02:20:30;;;;;;;31.35;29.55;;;;;;;-1.45;100.00;100897.38;5029053;28;20441;-72
2024/03/04 02:22:59;;;;;;;28.05;26.35;;;;;;;-1.35;100.00;100899.25;5031477;28;20046;-72
2024/03/04 02:25:40;;;;;;;32.28;30.05;;;;;;;-0.83;100.00;100900.19;5031200;28;20674;-73
2024/03/04 02:28:07;;;;;;;34.10;31.98;;;;;;;-0.60;100.00;100893.88;5030999;28;20048;-72
2024/03/04 02:30:34;;;;;;;28.60;27.00;;;;;;;-0.56;100.00;100895.25;5029594;28;20104;-73
2024/03/04 02:33:03;;;;;;;29.30;27.55;;;;;;;-1.04;100.00;100897.56;5024889;28;20046;-72
2024/03/04 02:35:33;;;;;;;33.33;31.42;;;;;;;-1.57;100.00;100905.31;5026004;28;20521;-73
2024/03/04 02:38:05;;;;;;;35.15;32.90;;;;;;;-1.26;100.00;100901.91;5029403;28;20071;-72
2024/03/04 02:40:32;;;;;;;31.55;29.77;;;;;;;-0.88;100.00;100910.97;5026493;28;20060;-73
2024/03/04 02:43:03;;;;;;;34.75;32.33;;;;;;;-0.93;100.00;100902.72;5030512;28;20502;-72
2024/03/04 02:45:30;;;;;;;35.08;33.17;;;;;;;-1.00;100.00;100904.16;5029365;28;20056;-73
2024/03/04 02:47:57;;;;;;;33.55;31.73;;;;;;;-0.98;100.00;100916.13;5030420;28;20057;-72
2024/03/04 02:50:24;;;;;;;33.88;32.03;;;;;;;-0.96;100.00;100914.22;5029690;28;20053;-72
2024/03/04 02:52:52;;;;;;;34.92;32.88;;;;;;;-0.84;100.00;100916.78;5030694;28;20141;-72
2024/03/04 02:55:20;;;;;;;32.67;30.88;;;;;;;-0.71;100.00;100909.59;5030022;28;20061;-73
2024/03/04 02:57:47;;;;;;;31.25;29.52;;;;;;;-0.69;100.00;100912.91;5025611;28;20059;-73
2024/03/04 03:00:14;;;;;;;36.20;32.95;;;;;;;-0.67;100.00;100920.59;5028509;28;20045;-72
2024/03/04 03:02:41;;;;;;;32.42;30.17;;;;;;;-0.71;100.00;100917.41;5028372;28;20787;-72
2024/03/04 03:05:08;;;;;;;30.95;29.25;;;;;;;-1.09;100.00;100920.56;5032507;28;20041;-72
2024/03/04 03:07:41;;;;;;;31.55;29.75;;;;;;;-1.49;100.00;100924.63;5030179;28;20276;-73
2024/03/04 03:10:08;;;;;;;34.47;31.38;;;;;;;-1.43;100.00;100931.13;5025562;28;20057;-72
2024/03/04 03:12:38;;;;;;;35.25;33.22;;;;;;;-1.33;100.00;100937.25;5017250;28;20050;-73
2024/03/04 03:15:07;;;;;;;34.10;32.03;;;;;;;-1.68;100.00;100946.09;5029233;28;20049;-73
2024/03/04 03:17:41;;;;;;;33.83;31.98;;;;;;;-1.22;100.00;100941.59;5023670;28;20049;-73
2024/03/04 03:20:16;;;;;;;31.83;30.20;;;;;;;-1.34;100.00;100951.22;5029465;28;20041;-73
2024/03/04 03:22:44;;;;;;;35.22;32.83;;;;;;;-1.39;100.00;100950.78;5035011;28;20440;-73
2024/03/04 03:25:12;;;;;;;37.30;34.85;;;;;;;-1.19;100.00;100952.59;5024777;28;20125;-73
2024/03/04 03:27:40;;;;;;;33.10;31.40;;;;;;;-1.16;100.00;100949.75;5029313;28;20429;-71
2024/03/04 03:30:09;;;;;;;33.72;31.55;;;;;;;-0.95;100.00;100943.75;5028872;28;20053;-73
2024/03/04 03:32:37;;;;;;;34.30;31.95;;;;;;;-0.90;100.00;100944.19;5023404;28;20072;-73
2024/03/04 03:35:05;;;;;;;29.92;28.30;;;;;;;-1.35;100.00;100935.72;5029259;28;20052;-73
2024/03/04 03:37:32;;;;;;;30.48;28.00;;;;;;;-1.53;100.00;100944.06;5024381;28;20050;-72
2024/03/04 03:39:59;;;;;;;37.30;34.55;;;;;;;-1.80;100.00;100941.03;5024288;28;20519;-72
2024/03/04 03:42:26;;;;;;;35.00;32.40;;;;;;;-1.61;100.00;100941.22;5027609;28;20085;-73
2024/03/04 03:44:56;;;;;;;36.90;34.60;;;;;;;-1.68;100.00;100947.88;5023621;28;20041;-73
2024/03/04 03:47:23;;;;;;;32.30;30.40;;;;;;;-1.52;100.00;100950.09;5027048;28;20132;-73
2024/03/04 03:49:50;;;;;;;29.98;28.02;;;;;;;-1.40;100.00;100943.91;5027913;28;20736;-73
2024/03/04 03:52:18;;;;;;;31.92;30.00;;;;;;;-1.76;100.00;100953.66;5027948;28;20060;-73
2024/03/04 03:54:46;;;;;;;35.58;33.58;;;;;;;-1.59;100.00;100951.53;5026457;28;20050;-73
2024/03/04 03:57:13;;;;;;;32.78;30.67;;;;;;;-1.48;100.00;100957.56;5020879;28;20047;-72
2024/03/04 03:59:41;;;;;;;26.80;25.30;;;;;;;-1.38;100.00;100958.47;5025143;28;20053;-73
2024/03/04 04:02:13;;;;;;;30.45;28.50;;;;;;;-1.15;100.00;100953.16;5025803;28;20049;-72
2024/03/04 04:04:40;;;;;;;28.08;26.33;;;;;;;-1.30;100.00;100957.88;5019740;28;20049;-73
2024/03/04 04:07:07;;;;;;;30.70;28.90;;;;;;;-2.25;100.00;100951.44;5024304;28;20540;-72
2024/03/04 04:09:34;;;;;;;29.48;27.77;;;;;;;-2.10;100.00;100958.06;5029200;28;20072;-71
2024/03/04 04:12:01;;;;;;;31.50;29.60;;;;;;;-1.63;100.00;100966.59;5026799;28;20041;-73
2024/03/04 04:14:35;;;;;;;31.20;29.30;;;;;;;-1.19;100.00;100965.63;5024335;28;20437;-73
2024/03/04 04:17:05;;;;;;;32.17;29.85;;;;;;;-1.35;100.00;100967.81;5029211;28;20495;-73
2024/03/04 04:19:34;;;;;;;27.75;26.23;;;;;;;-1.31;100.00;100968.41;5028817;28;20046;-73
2024/03/04 04:22:01;;;;;;;26.38;24.88;;;;;;;-1.19;100.00;100972.63;5018756;28;20046;-73
2024/03/04 04:24:28;;;;;;;28.90;27.27;;;;;;;-1.16;100.00;100975.00;5029259;28;20568;-72
2024/03/04 04:26:54;;;;;;;29.63;27.75;;;;;;;-2.19;100.00;100969.19;5028550;28;20053;-73
2024/03/04 04:29:21;;;;;;;28.60;26.88;;;;;;;-2.25;100.00;100980.91;5024786;28;20045;-73
2024/03/04 04:31:51;;;;;;;27.70;25.90;;;;;;;-1.80;100.00;100973.09;5020364;28;20057;-73
2024/03/04 04:34:18;;;;;;;27.45;25.85;;;;;;;-1.44;100.00;100978.97;5021505;28;20785;-73
2024/03/04 04:36:49;;;;;;;27.40;25.70;;;;;;;-1.32;100.00;100971.97;5022104;28;20045;-73
2024/03/04 04:39:16;;;;;;;28.02;26.33;;;;;;;-1.34;100.00;100981.69;5028850;28;20042;-73
2024/03/04 04:41:43;;;;;;;30.10;27.92;;;;;;;-1.91;100.00;100980.91;5024638;28;20102;-73
2024/03/04 04:44:11;;;;;;;25.33;23.80;;;;;;;-1.74;100.00;100982.22;5027013;28;20050;-73
2024/03/04 04:46:38;;;;;;;23.65;22.25;;;;;;;-1.66;100.00;100987.66;5021675;28;20054;-73
2024/03/04 04:49:05;;;;;;;28.20;26.48;;;;;;;-1.57;100.00;100983.47;5023059;28;20104;-73
2024/03/04 04:51:32;;;;;;;29.88;27.80;;;;;;;-2.19;100.00;100988.22;5013756;28;20052;-73
2024/03/04 04:54:03;;;;;;;29.50;27.45;;;;;;;-1.80;100.00;100991.31;5028335;28;20064;-73
2024/03/04 04:56:30;;;;;;;26.95;25.35;;;;;;;-1.53;100.00;100993.56;5024189;28;20429;-73
2024/03/04 04:59:02;;;;;;;28.70;26.88;;;;;;;-1.39;100.00;100997.69;5026555;28;20057;-73
2024/03/04 05:01:29;;;;;;;29.33;27.60;;;;;;;-1.60;100.00;101010.63;5027936;28;20049;-72
2024/03/04 05:03:56;;;;;;;28.55;26.85;;;;;;;-1.63;100.00;101005.66;5026600;28;20746;-73
2024/03/04 05:06:23;;;;;;;25.70;23.95;;;;;;;-1.65;100.00;100999.72;5020337;28;20049;-71
2024/03/04 05:08:50;;;;;;;27.67;25.60;;;;;;;-1.90;100.00;100999.03;5026998;28;20050;-73
2024/03/04 05:11:18;;;;;;;23.10;21.70;;;;;;;-2.11;100.00;101006.72;5023459;28;20050;-71
2024/03/04 05:13:46;;;;;;;27.48;25.55;;;;;;;-2.23;100.00;101006.81;5024569;28;20127;-71
2024/03/04 05:16:13;;;;;;;25.42;23.77;;;;;;;-1.91;100.00;101014.75;5031427;28;20048;-73
2024/03/04 05:18:40;;;;;;;24.73;23.10;;;;;;;-1.67;100.00;101012.84;5031404;28;20493;-73
2024/03/04 05:21:07;;;;;;;24.40;22.85;;;;;;;-1.37;100.00;101019.22;5028590;28;20049;-72
2024/03/04 05:23:35;;;;;;;23.90;22.42;;;;;;;-1.31;100.00;101026.56;5029061;28;20435;-73
2024/03/04 05:26:03;;;;;;;23.88;22.40;;;;;;;-1.20;100.00;101023.94;5028096;28;20064;-73
2024/03/04 05:28:31;;;;;;;23.30;21.80;;;;;;;-0.97;100.00;101029.06;5027063;28;20139;-73
2024/03/04 05:30:58;;;;;;;23.17;21.77;;;;;;;-0.86;100.00;101023.00;5027214;28;20056;-73
2024/03/04 05:33:25;;;;;;;26.25;24.48;;;;;;;-0.94;100.00;101026.22;5028081;28;20061;-73
2024/03/04 05:35:52;;;;;;;24.08;22.25;;;;;;;-0.86;100.00;101036.88;5028025;28;20448;-73
2024/03/04 05:38:19;;;;;;;25.10;23.30;;;;;;;-0.73;100.00;101024.50;5024193;28;20041;-73
2024/03/04 05:40:46;;;;;;;26.52;24.70;;;;;;;-0.70;100.00;101013.81;5025912;28;20037;-73
2024/03/04 05:43:13;;;;;;;27.27;25.58;;;;;;;-0.58;100.00;101018.97;5031043;28;20136;-73
2024/03/04 05:45:42;;;;;;;26.90;25.30;;;;;;;-0.33;100.00;101023.00;5030033;28;20057;-73
2024/03/04 05:48:10;;;;;;;26.88;25.17;;;;;;;-0.20;100.00;101025.41;5028958;28;21375;-73
2024/03/04 05:50:37;;;;;;;26.92;25.23;;;;;;;-0.04;100.00;101026.59;5031074;28;20045;-73
2024/03/04 05:53:05;;;;;;;28.98;27.00;;;;;;;-0.08;100.00;101024.38;5031194;28;20049;-73
2024/03/04 05:55:46;;;;;;;29.17;27.17;;;;;;;0.25;100.00;101030.31;5029074;28;20079;-73
2024/03/04 05:58:14;;;;;;;30.45;28.52;;;;;;;0.65;100.00;101035.53;5030105;28;20056;-73
2024/03/04 06:00:44;;;;;;;34.05;30.70;;;;;;;0.88;100.00;101031.75;5024416;28;20100;-73
2024/03/04 06:03:11;;;;;;;32.00;29.45;;;;;;;1.18;100.00;101031.75;5026300;28;20135;-73
2024/03/04 06:05:38;;;;;;;34.70;32.20;;;;;;;1.09;100.00;101033.41;5022736;28;20049;-72
2024/03/04 06:08:05;;;;;;;29.15;27.27;;;;;;;1.32;100.00;101028.75;5033213;28;20041;-73
2024/03/04 06:10:32;;;;;;;31.90;29.77;;;;;;;1.43;100.00;101030.41;5023507;28;20049;-73
2024/03/04 06:13:04;;;;;;;32.80;30.45;;;;;;;1.79;100.00;101027.06;5029909;28;20053;-73
2024/03/04 06:15:30;;;;;;;29.00;27.00;;;;;;;1.65;100.00;101030.09;5030808;28;20437;-73
2024/03/04 06:17:59;;;;;;;28.02;26.10;;;;;;;1.54;100.00;101032.84;5031288;28;20041;-72
2024/03/04 06:20:25;;;;;;;29.48;27.45;;;;;;;1.84;100.00;101029.22;5029688;28;20049;-72
2024/03/04 06:22:52;;;;;;;30.60;27.75;;;;;;;2.00;100.00;101032.09;5031038;28;20079;-72
2024/03/04 06:25:19;;;;;;;30.52;28.33;;;;;;;2.12;100.00;101043.25;5028068;28;20056;-72
2024/03/04 06:27:46;;;;;;;31.73;29.52;;;;;;;2.12;100.00;101031.91;5026345;28;20048;-73
2024/03/04 06:30:15;;;;;;;31.88;29.40;;;;;;;2.34;100.00;101036.00;5030493;28;20060;-72
2024/03/04 06:32:42;;;;;;;36.63;33.92;;;;;;;2.40;100.00;101030.97;5030796;28;20499;-73
2024/03/04 06:35:11;;;;;;;36.22;33.63;;;;;;;2.97;100.00;101038.69;5039208;28;20053;-73
2024/03/04 06:37:39;;;;;;;33.25;31.13;;;;;;;3.38;100.00;101042.50;5030853;28;20099;-72
2024/03/04 06:40:08;;;;;;;35.75;32.78;;;;;;;3.44;100.00;101033.19;5036344;28;20053;-72
2024/03/04 06:42:35;;;;;;;34.30;32.10;;;;;;;3.73;100.00;101035.56;5026223;28;20050;-72
2024/03/04 06:45:12;;;;;;;34.58;32.30;;;;;;;3.98;100.00;101035.72;5028498;28;20057;-72
2024/03/04 06:47:42;;;;;;;34.65;32.35;;;;;;;4.26;100.00;101028.47;5030050;28;20076;-72
2024/03/04 06:50:12;;;;;;;34.88;32.60;;;;;;;4.87;100.00;101026.56;5029498;28;20124;-72
2024/03/04 06:52:39;;;;;;;35.65;33.35;;;;;;;4.93;100.00;101032.03;5030403;28;20429;-72
2024/03/04 06:55:07;;;;;;;35.65;33.15;;;;;;;5.17;100.00;101027.78;5028950;28;20758;-72
2024/03/04 06:57:33;;;;;;;37.97;35.38;;;;;;;5.30;100.00;101029.94;5028242;28;20052;-73
2024/03/04 07:00:00;;;;;;;38.72;36.25;;;;;;;5.62;100.00;101027.28;5029667;28;20061;-73
2024/03/04 07:02:27;;;;;;;37.70;35.30;;;;;;;5.81;100.00;101022.66;5027375;28;20064;-73
2024/03/04 07:04:56;;;;;;;38.30;35.90;;;;;;;5.49;100.00;101038.34;5027710;28;20049;-73
2024/03/04 07:07:24;;;;;;;36.63;34.30;;;;;;;5.55;100.00;101026.31;5028440;28;20143;-73
2024/03/04 07:09:51;;;;;;;37.45;34.95;;;;;;;6.01;100.00;101031.88;5026634;28;20645;-73
2024/03/04 07:12:18;;;;;;;34.72;32.53;;;;;;;6.07;100.00;101018.03;5029158;28;20049;-73
2024/03/04 07:14:45;;;;;;;33.63;30.95;;;;;;;6.31;100.00;101022.41;5029540;28;20429;-73
2024/03/04 07:17:12;;;;;;;33.40;31.27;;;;;;;6.74;100.00;101022.88;5026890;28;20054;-73
2024/03/04 07:19:41;;;;;;;33.67;31.17;;;;;;;7.13;100.00;101021.97;5029077;28;20653;-73
2024/03/04 07:22:08;;;;;;;33.50;31.40;;;;;;;7.68;100.00;101028.00;5029492;28;20440;-72
2024/03/04 07:24:36;;;;;;;31.38;29.48;;;;;;;7.72;100.00;101024.81;5028021;28;20053;-73
2024/03/04 07:27:03;;;;;;;31.70;29.33;;;;;;;8.11;100.00;101017.63;5029178;28;20053;-73
2024/03/04 07:29:30;;;;;;;30.55;28.35;;;;;;;8.30;100.00;101018.94;5029743;28;20053;-73
2024/03/04 07:31:56;;;;;;;30.38;28.27;;;;;;;8.47;100.00;101018.59;5029257;28;20073;-73
2024/03/04 07:34:26;;;;;;;37.95;35.65;;;;;;;8.91;100.00;101025.59;5029271;28;20053;-73
2024/03/04 07:36:53;;;;;;;37.63;35.33;;;;;;;9.20;100.00;101023.03;5027347;28;20517;-73
2024/03/04 07:39:20;;;;;;;31.15;29.20;;;;;;;8.91;100.00;101022.97;5009754;28;20057;-73
2024/03/04 07:41:48;;;;;;;32.70;30.60;;;;;;;9.35;100.00;101016.69;5022584;28;20041;-73
2024/03/04 07:44:15;;;;;;;33.35;31.15;;;;;;;9.30;100.00;101010.31;5024364;28;20045;-73
2024/03/04 07:46:42;;;;;;;30.20;28.20;;;;;;;9.73;100.00;101005.75;5028231;28;20049;-73
2024/03/04 07:49:09;;;;;;;31.05;29.05;;;;;;;10.75;100.00;101001.59;5019983;28;20057;-73
2024/03/04 07:51:36;;;;;;;31.08;28.98;;;;;;;10.78;100.00;100994.06;5028158;28;20077;-73
2024/03/04 07:54:04;;;;;;;30.88;28.77;;;;;;;10.90;100.00;100985.50;5032426;28;20057;-73
2024/03/04 07:56:33;;;;;;;31.95;29.75;;;;;;;10.51;100.00;100990.50;5026309;28;20077;-73
2024/03/04 07:59:01;;;;;;;33.83;31.52;;;;;;;11.03;100.00;100985.50;5024625;28;20057;-73
2024/03/04 08:01:30;;;;;;;33.15;30.60;;;;;;;11.50;100.00;100991.69;5025052;28;20058;-73
2024/03/04 08:03:57;;;;;;;42.33;38.97;;;;;;;11.75;100.00;100983.06;5036134;28;20056;-74
2024/03/04 08:06:24;;;;;;;40.83;38.33;;;;;;;11.80;100.00;100983.25;5024287;28;20045;-73
2024/03/04 08:08:52;;;;;;;41.92;39.42;;;;;;;12.18;100.00;100979.94;5028498;28;20056;-73
2024/03/04 08:11:18;;;;;;;44.67;42.00;;;;;;;12.33;100.00;100972.50;5026142;28;20111;-73
2024/03/04 08:13:46;;;;;;;34.63;32.40;;;;;;;13.16;100.00;100969.78;5030138;28;20041;-74
2024/03/04 08:16:14;;;;;;;36.15;33.17;;;;;;;13.13;100.00;100978.22;5013639;28;20863;-74
2024/03/04 08:18:41;;;;;;;34.75;32.03;;;;;;;12.96;100.00;100974.44;5024661;28;20053;-72
2024/03/04 08:21:14;;;;;;;33.55;31.35;;;;;;;12.99;100.00;100966.81;5025189;28;20045;-72
2024/03/04 08:23:41;;;;;;;35.22;32.72;;;;;;;13.51;100.00;100970.13;5028742;28;20053;-72
2024/03/04 08:26:08;;;;;;;37.72;35.03;;;;;;;14.03;100.00;100956.47;5028060;28;20053;-73
2024/03/04 08:28:35;;;;;;;36.33;33.92;;;;;;;14.62;100.00;100954.94;5022819;28;20521;-74
2024/03/04 08:31:08;;;;;;;35.78;33.28;;;;;;;14.91;100.00;100955.13;5028094;28;20037;-74
2024/03/04 08:33:41;;;;;;;36.65;34.25;;;;;;;15.08;100.00;100947.28;5026890;28;20050;-74
2024/03/04 08:36:08;;;;;;;46.53;43.65;;;;;;;15.50;100.00;100947.22;5026613;28;20045;-74
2024/03/04 08:38:35;;;;;;;47.80;44.88;;;;;;;15.08;100.00;100934.72;5028269;28;20057;-73
2024/03/04 08:41:03;;;;;;;47.10;44.10;;;;;;;15.77;100.00;100940.34;5025165;28;20060;-73
2024/03/04 08:43:30;;;;;;;35.47;32.53;;;;;;;15.51;100.00;100938.94;5023233;28;20080;-73
2024/03/04 08:45:56;;;;;;;37.50;34.90;;;;;;;15.83;100.00;100930.56;5028748;28;20076;-73
2024/03/04 08:48:24;;;;;;;37.60;35.05;;;;;;;16.61;100.00;100923.81;5028144;28;20524;-71
2024/03/04 08:50:52;;;;;;;35.55;33.15;;;;;;;16.45;100.00;100929.91;5027447;28;20049;-71
2024/03/04 08:53:19;;;;;;;39.28;36.58;;;;;;;15.95;100.00;100925.19;5028078;28;20045;-74
2024/03/04 08:55:45;;;;;;;40.33;37.63;;;;;;;16.96;100.00;100935.41;5025064;28;20049;-71
2024/03/04 08:58:14;;;;;;;38.28;35.65;;;;;;;16.98;100.00;100922.56;5028323;28;20064;-71
2024/03/04 09:00:41;;;;;;;37.65;34.90;;;;;;;17.51;100.00;100926.59;5025530;28;20072;-71
2024/03/04 09:03:08;;;;;;;39.38;36.78;;;;;;;15.66;100.00;100929.63;5026002;28;20041;-71
2024/03/04 09:05:36;;;;;;;49.65;46.65;;;;;;;16.96;100.00;100924.69;5026579;28;20049;-71
2024/03/04 09:08:04;;;;;;;48.47;45.55;;;;;;;17.35;100.00;100929.06;5027261;28;20136;-71
2024/03/04 09:10:37;;;;;;;50.15;47.05;;;;;;;18.15;100.00;100926.91;5023002;28;20053;-72
2024/03/04 09:13:04;;;;;;;49.42;46.33;;;;;;;17.01;100.00;100933.63;5027481;28;20053;-71
2024/03/04 09:15:31;;;;;;;36.40;33.47;;;;;;;17.42;100.00;100933.44;5034621;28;20048;-71
2024/03/04 09:17:59;;;;;;;41.78;38.65;;;;;;;18.22;100.00;100927.56;5033870;28;20053;-71
2024/03/04 09:20:26;;;;;;;40.10;37.30;;;;;;;16.98;100.00;100922.56;5028108;28;20128;-71
2024/03/04 09:22:53;;;;;;;39.17;36.58;;;;;;;17.16;100.00;100928.50;5031990;28;20041;-72
2024/03/04 09:25:21;;;;;;;39.92;36.78;;;;;;;17.09;100.00;100927.03;5032364;28;20877;-71
2024/03/04 09:27:48;;;;;;;36.88;34.38;;;;;;;16.39;100.00;100925.50;5032096;28;20088;-71
2024/03/04 09:30:15;;;;;;;38.47;35.85;;;;;;;15.97;100.00;100926.56;5019664;28;20064;-71
2024/03/04 09:32:42;;;;;;;39.45;36.83;;;;;;;16.32;100.00;100917.63;5031790;28;20045;-72
2024/03/04 09:35:11;;;;;;;39.65;37.05;;;;;;;15.90;100.00;100917.03;5027859;28;20436;-71
2024/03/04 09:37:38;;;;;;;38.72;35.90;;;;;;;15.92;100.00;100917.63;5030358;28;20045;-71
2024/03/04 09:40:09;;;;;;;44.42;41.72;;;;;;;18.09;100.00;100917.16;5024513;28;20049;-71
2024/03/04 09:42:42;;;;;;;50.07;47.07;;;;;;;19.66;100.00;100902.69;5025427;28;20584;-73
2024/03/04 09:45:11;;;;;;;54.10;50.80;;;;;;;19.19;100.00;100909.66;5030077;28;20049;-73
2024/03/04 09:47:50;;;;;;;50.15;46.72;;;;;;;19.16;99.52;100903.97;5028670;28;20618;-73
2024/03/04 09:50:21;;;;;;;39.70;36.88;;;;;;;19.77;85.87;100909.75;5029123;28;20060;-73
2024/03/04 09:52:49;;;;;;;37.30;34.70;;;;;;;19.67;99.97;100907.00;5023950;28;20054;-72
2024/03/04 09:55:17;;;;;;;37.83;35.22;;;;;;;19.91;100.00;100907.41;5027490;28;20041;-73
2024/03/04 09:57:45;;;;;;;38.60;35.92;;;;;;;20.49;91.28;100908.09;5034050;28;20813;-72
2024/03/04 10:00:14;;;;;;;41.15;37.05;;;;;;;20.53;77.91;100903.81;5026915;28;20724;-73
2024/03/04 10:02:42;;;;;;;42.42;39.42;;;;;;;20.07;98.75;100906.38;5028609;28;20106;-73
2024/03/04 10:05:16;;;;;;;41.05;38.25;;;;;;;19.40;71.97;100910.59;5030943;28;20053;-73
2024/03/04 10:07:43;;;;;;;41.95;38.85;;;;;;;20.35;100.00;100893.50;5030699;28;20704;-72
2024/03/04 10:10:12;;;;;;;39.38;36.40;;;;;;;20.35;97.93;100896.19;5027990;28;20056;-71
2024/03/04 10:12:40;;;;;;;38.42;35.17;;;;;;;18.22;96.71;100899.88;5029775;28;20045;-71
2024/03/04 10:15:10;;;;;;;41.50;37.60;;;;;;;19.60;83.12;100895.63;5027722;28;20137;-72
2024/03/04 10:17:38;;;;;;;55.80;52.30;;;;;;;18.58;100.00;100889.44;5017054;28;20057;-72
2024/03/04 10:20:07;;;;;;;56.88;53.35;;;;;;;18.39;100.00;100884.44;5028421;28;20089;-71
2024/03/04 10:22:34;;;;;;;56.85;53.35;;;;;;;18.43;100.00;100884.75;5030633;28;20461;-72
2024/03/04 10:25:04;;;;;;;58.10;54.60;;;;;;;18.84;100.00;100861.75;5029838;28;20052;-72
2024/03/04 10:27:31;;;;;;;60.75;56.95;;;;;;;19.42;96.59;100864.53;5027853;28;20083;-70
2024/03/04 10:30:11;;;;;;;61.30;57.40;;;;;;;20.21;90.84;100858.16;5032607;28;20549;-74
2024/03/04 10:32:38;;;;;;;58.55;54.95;;;;;;;20.86;72.13;100857.69;5028033;28;20452;-72
2024/03/04 10:35:06;;;;;;;62.92;59.03;;;;;;;20.85;84.03;100854.19;5026892;28;20504;-72
2024/03/04 10:37:34;;;;;;;58.22;54.63;;;;;;;19.41;92.92;100861.03;5025845;28;20046;-70
2024/03/04 10:40:01;;;;;;;58.03;54.42;;;;;;;19.90;79.59;100851.84;5028711;28;20095;-70
2024/03/04 10:42:28;;;;;;;38.50;35.88;;;;;;;21.24;75.04;100850.84;5023601;28;20139;-72
2024/03/04 10:44:55;;;;;;;55.10;51.65;;;;;;;20.99;76.78;100847.13;5025839;28;20038;-73
2024/03/04 10:47:23;;;;;;;63.90;60.00;;;;;;;20.89;84.26;100849.03;5026070;28;20441;-72
2024/03/04 10:49:51;;;;;;;61.72;57.72;;;;;;;20.76;73.01;100845.81;5028924;28;20060;-71
2024/03/04 10:52:18;;;;;;;72.13;58.60;;;;;;;21.17;76.90;100845.75;5026337;28;20487;-71
2024/03/04 10:54:48;;;;;;;59.65;55.95;;;;;;;20.99;74.20;100841.72;5027731;28;20041;-72
2024/03/04 10:57:26;;;;;;;61.10;57.30;;;;;;;21.76;66.86;100833.44;5024923;28;20054;-72
2024/03/04 10:59:56;;;;;;;59.78;56.17;;;;;;;20.89;71.78;100838.25;5024174;28;20053;-72
2024/03/04 11:02:42;;;;;;;59.20;55.72;;;;;;;20.84;74.61;100832.84;5029471;28;20571;-72
2024/03/04 11:05:11;;;;;;;59.58;55.97;;;;;;;22.17;65.42;100827.81;5023423;28;20105;-72
2024/03/04 11:07:43;;;;;;;60.63;57.03;;;;;;;20.06;85.45;100825.75;5022256;28;20056;-72
2024/03/04 11:10:15;;;;;;;;;;;;;;;21.21;75.94;100825.22;5018061;28;20053;-73